Flight Track Log - Related Links

Times and Time Zones

All times are in EDT time to prevent confusion due to time zone crossing. See the ACA907 flight status page for this flight to view local times or setup timezone preferences in your user account.

Time Position Orientation Groundspeed Altitude Reporting Facility
EDT Latitude Longitude Course Direction KTS MPH feet Rate Location/Type
Fri 03:05:00 PM 28.4167 -81.3167 North 174 200 900  Level Orlando TRACON
Fri 03:06:06 PM 28.4000 -81.2667 111° Southeast 231 266 2,700 2,143 Climbing Orlando TRACON
Fri 03:07:06 PM 28.4167 -81.1833 77° East 269 310 5,400 2,750 Climbing Orlando TRACON
Fri 03:08:06 PM 28.5000 -81.1667 10° North 285 328 8,200 2,600 Climbing Orlando TRACON
Fri 03:09:00 PM 29.0126 -81.3692 350° North  Level FlightAware Approximate
Fri 03:09:06 PM 28.5833 -81.1500 10° North 303 349 10,600  Level Orlando TRACON
Fri 03:10:00 PM 29.1328 -81.3833 North  Level FlightAware Approximate
Fri 03:11:30 PM 28.7850 -81.1397 North 335 386 15,700  Level Jacksonville Center
Fri 03:12:30 PM 28.8786 -81.1308 North 335 386 17,700 1,800 Climbing Jacksonville Center
Fri 03:13:30 PM 28.9786 -81.1172 North 343 395 19,300 1,700 Climbing Jacksonville Center
Fri 03:14:30 PM 29.0767 -81.1036 North 349 402 21,100 1,600 Climbing Jacksonville Center
Fri 03:15:30 PM 29.1808 -81.0922 North 360 414 22,500 1,600 Climbing Jacksonville Center
Fri 03:16:30 PM 29.2831 -81.0903 North 367 422 24,300 1,450 Climbing Jacksonville Center
Fri 03:17:30 PM 29.3797 -81.1292 341° North 362 417 25,400 900 Climbing Jacksonville Center
Fri 03:18:30 PM 29.4931 -81.1769 340° North 367 422 26,100 800 Climbing Jacksonville Center
Fri 03:19:30 PM 29.6022 -81.2206 341° North 394 453 27,000 700 Climbing Jacksonville Center
Fri 03:20:30 PM 29.7153 -81.2642 341° North 414 476 27,500 1,850 Climbing Jacksonville Center
Fri 03:21:30 PM 29.8264 -81.2958 346° North 420 483 30,700 1,800 Climbing Jacksonville Center
Fri 03:22:30 PM 29.9350 -81.2892 North 395 455 31,100 500 Climbing Jacksonville Center
Fri 03:23:30 PM 30.0497 -81.2847 North 395 455 31,700 800 Climbing Jacksonville Center
Fri 03:24:30 PM 30.1625 -81.2806 North 400 460 32,700 900 Climbing Jacksonville Center
Fri 03:25:30 PM 30.2750 -81.2761 North 405 466 33,500 700 Climbing Jacksonville Center
Fri 03:26:30 PM 30.3919 -81.2694 North 405 466 34,100 450 Climbing Jacksonville Center
Fri 03:27:30 PM 30.5089 -81.2650 North 405 466 34,400 450 Climbing Jacksonville Center
Fri 03:28:30 PM 30.6278 -81.2606 North 410 472 35,000 300 Climbing Jacksonville Center
Fri 03:29:30 PM 30.7508 -81.2561 North 423 487 35,000  Level Jacksonville Center
Fri 03:30:30 PM 30.8761 -81.2514 North 434 499 35,000  Level Jacksonville Center
Fri 03:31:30 PM 31.0033 -81.2494 North 447 514 35,000  Level Jacksonville Center
Fri 03:32:30 PM 31.1350 -81.2444 North 461 531 35,000  Level Jacksonville Center
Fri 03:33:30 PM 31.2664 -81.2375 North 461 531 35,000  Level Jacksonville Center
Fri 03:34:30 PM 31.3914 -81.2303 North 455 524 35,000  Level Jacksonville Center
Fri 03:35:30 PM 31.5167 -81.2256 North 455 524 35,000  Level Jacksonville Center
Fri 03:36:30 PM 31.6336 -81.2236 North 453 521 35,000  Level Jacksonville Center
Fri 03:37:30 PM 31.7714 -81.2186 North 458 527 35,000  Level Jacksonville Center
Fri 03:38:30 PM 31.9050 -81.2136 North 458 527 35,000  Level Jacksonville Center
Fri 03:39:30 PM 32.0342 -81.2089 North 464 534 35,000  Level Jacksonville Center
Fri 03:40:30 PM 32.1617 -81.2042 North 456 525 35,000  Level Jacksonville Center
Fri 03:41:30 PM 32.2908 -81.1919 North 461 531 35,000  Level Jacksonville Center
Fri 03:42:30 PM 32.4264 -81.1844 North 466 536 35,000  Level Jacksonville Center
Fri 03:43:30 PM 32.5389 -81.1725 North 461 531 35,000  Level Jacksonville Center
Fri 03:44:30 PM 32.6703 -81.1625 North 461 531 35,000 -50 Level Jacksonville Center
Fri 03:45:30 PM 32.8100 -81.1500 North 461 531 34,900  Descending Jacksonville Center
Fri 03:46:30 PM 32.9392 -81.1378 North 461 531 35,000  Climbing Jacksonville Center
Fri 03:47:30 PM 33.0658 -81.0881 18° North 461 531 34,900  Descending Jacksonville Center
Fri 03:48:30 PM 33.1925 -81.0358 19° North 471 542 35,000  Climbing Jacksonville Center
Fri 03:49:30 PM 33.2981 -80.9739 26° Northeast 471 542 34,900 -50 Descending Jacksonville Center
Fri 03:50:30 PM 33.4136 -80.8894 31° Northeast 471 542 34,900 50 Level Jacksonville Center
Fri 03:51:30 PM 33.5206 -80.7900 38° Northeast 482 555 35,000 50 Climbing Jacksonville Center
Fri 03:52:30 PM 33.6314 -80.6900 37° Northeast 488 562 35,000  Level Jacksonville Center
Fri 03:53:30 PM 33.7467 -80.6022 32° Northeast 493 567 35,000  Level Jacksonville Center
Fri 03:55:21 PM 33.9797 -80.5944 North 442 509 35,000  Level Atlanta Center
Fri 03:56:21 PM 34.1219 -80.6011 358° North 452 520 35,000  Level Atlanta Center
Fri 03:57:21 PM 34.2492 -80.6061 358° North 457 526 35,000  Level Atlanta Center
Fri 03:58:21 PM 34.3808 -80.6083 359° North 463 533 35,000  Level Atlanta Center
Fri 03:59:21 PM 34.5061 -80.6106 359° North 458 527 35,000  Level Atlanta Center
Fri 04:00:20 PM 34.6356 -80.6181 357° North 458 527 35,000  Level Atlanta Center
Fri 04:01:21 PM 34.7631 -80.6228 358° North 458 527 35,000  Level Atlanta Center
Fri 04:02:21 PM 34.8925 -80.6228 360° North 464 534 35,000  Level Atlanta Center
Fri 04:03:21 PM 35.0158 -80.6303 357° North 458 527 35,000  Level Atlanta Center
Fri 04:04:21 PM 35.1392 -80.6353 358° North 453 521 35,000  Level Atlanta Center
Fri 04:05:21 PM 35.2664 -80.6403 358° North 453 521 35,000  Level Atlanta Center
Fri 04:06:21 PM 35.3939 -80.6478 357° North 459 528 35,000  Level Atlanta Center
Fri 04:07:21 PM 35.5067 -80.6483 360° North 459 528 35,000  Level Atlanta Center
Fri 04:08:21 PM 35.6361 -80.6531 358° North 459 528 35,000  Level Atlanta Center
Fri 04:09:21 PM 35.7636 -80.6606 357° North 459 528 35,000  Level Atlanta Center
Fri 04:10:21 PM 35.8931 -80.6656 358° North 459 528 35,000  Level Atlanta Center
Fri 04:11:21 PM 36.0203 -80.6706 358° North 459 528 35,000  Level Atlanta Center
Fri 04:12:21 PM 36.1500 -80.6781 357° North 459 528 35,000  Level Atlanta Center
Fri 04:13:21 PM 36.2814 -80.6828 358° North 459 528 35,000  Level Atlanta Center
Fri 04:14:21 PM 36.4086 -80.6800 North 459 528 35,000  Level Atlanta Center
Fri 04:15:20 PM 36.5392 -80.6514 10° North 459 528 35,000  Level Atlanta Center
Fri 04:17:03 PM 36.7583 -80.6058 North 461 531 35,000  Level Washington Center
Fri 04:18:04 PM 36.8889 -80.5781 10° North 467 537 35,000  Level Washington Center
Fri 04:19:04 PM 37.0319 -80.5483 North 472 543 35,000  Level Washington Center
Fri 04:20:06 PM 37.1603 -80.5228 North 472 543 35,000  Level Washington Center
Fri 04:21:03 PM 37.2886 -80.4969 North 472 543 35,000  Level Washington Center
Fri 04:22:04 PM 37.4211 -80.4692 North 472 543 35,000  Level Washington Center
Fri 04:23:04 PM 37.5369 -80.4450 North 472 543 35,000  Level Washington Center
Fri 04:24:05 PM 37.6653 -80.4164 10° North 472 543 35,000  Level Washington Center
Fri 04:25:05 PM 37.7956 -80.3906 North 472 543 35,000  Level Washington Center
Fri 04:26:03 PM 37.9242 -80.3619 10° North 472 543 35,000  Level Washington Center
Fri 04:27:04 PM 38.0525 -80.3306 11° North 472 543 35,000  Level Washington Center
Fri 04:28:05 PM 38.1936 -80.3000 10° North 467 537 35,000  Level Washington Center
Fri 04:29:03 PM 38.3197 -80.2736 North 467 537 35,000  Level Washington Center
Fri 04:30:04 PM 38.4481 -80.2444 10° North 467 537 35,000  Level Washington Center
Fri 04:31:05 PM 38.5742 -80.2178 North 467 537 35,000  Level Washington Center
Fri 04:32:05 PM 38.6878 -80.1903 11° North 467 537 35,000  Level Washington Center
Fri 04:33:04 PM 38.8161 -80.1639 North 467 537 35,000  Level Washington Center
Fri 04:35:33 PM 39.1364 -80.0853 11° North 466 536 35,000  Level Cleveland Center
Fri 04:36:33 PM 39.2781 -80.0522 10° North 466 536 35,000  Level Cleveland Center
Fri 04:37:33 PM 39.4031 -80.0217 11° North 466 536 35,000  Level Cleveland Center
Fri 04:38:33 PM 39.5319 -79.9936 10° North 466 536 35,000  Level Cleveland Center
Fri 04:39:33 PM 39.6569 -79.9628 11° North 466 536 35,000  Level Cleveland Center
Fri 04:40:33 PM 39.7839 -79.9347 10° North 466 536 35,000  Level Cleveland Center
Fri 04:41:33 PM 39.9089 -79.9039 11° North 466 536 35,000  Level Cleveland Center
Fri 04:42:33 PM 40.0336 -79.8753 10° North 466 536 35,000  Level Cleveland Center
Fri 04:43:33 PM 40.1606 -79.8469 10° North 466 536 35,000  Level Cleveland Center
Fri 04:44:33 PM 40.2836 -79.8156 11° North 456 525 35,000  Level Cleveland Center
Fri 04:45:33 PM 40.4042 -79.7869 10° North 446 513 35,000  Level Cleveland Center
Fri 04:46:33 PM 40.5269 -79.7583 10° North 446 513 35,000  Level Cleveland Center
Fri 04:47:33 PM 40.6519 -79.7292 10° North 446 513 35,000  Level Cleveland Center
Fri 04:48:33 PM 40.7747 -79.7003 10° North 446 513 35,000 -300 Level Cleveland Center
Fri 04:49:33 PM 40.8933 -79.6711 11° North 446 513 34,400 -500 Descending Cleveland Center
Fri 04:50:33 PM 41.0181 -79.6419 10° North 446 513 34,000 -200 Descending Cleveland Center
Fri 04:51:33 PM 41.1367 -79.6100 11° North 446 513 34,000  Level Cleveland Center
Fri 04:52:33 PM 41.2614 -79.5806 10° North 446 513 34,000  Level Cleveland Center
Fri 04:53:33 PM 41.3800 -79.5508 11° North 441 507 34,000  Level Cleveland Center
Fri 04:54:34 PM 41.4861 -79.5269 10° North 441 507 34,000 -300 Level Cleveland Center
Fri 04:55:33 PM 41.6067 -79.4944 11° North 441 507 33,400 -1,160 Descending Cleveland Center
Fri 04:56:33 PM 41.7231 -79.4647 11° North 435 501 31,700 -1,600 Descending Cleveland Center
Fri 04:57:33 PM 41.8439 -79.4347 10° North 435 501 30,200 -1,250 Descending Cleveland Center
Fri 04:58:33 PM 41.9664 -79.4075 North 435 501 29,200 -1,000 Descending Cleveland Center
Fri 04:59:33 PM 42.0911 -79.3744 11° North 440 506 28,200 -950 Descending Cleveland Center
Fri 05:00:33 PM 42.2117 -79.3442 11° North 440 506 27,300 -950 Descending Cleveland Center
Fri 05:01:33 PM 42.3303 -79.3136 11° North 445 512 26,300 -1,000 Descending Cleveland Center
Fri 05:02:33 PM 42.4531 -79.2858 North 445 512 25,300 -1,000 Descending Cleveland Center
Fri 05:03:33 PM 42.5758 -79.2806 North 445 512 24,300 -1,000 Descending Cleveland Center
Fri 05:04:33 PM 42.6886 -79.2925 356° North 427 491 23,300 -4,150 Descending Cleveland Center
Fri 05:05:33 PM 42.8158 -79.3067 355° North 422 486 16,000 -2,115 Descending Cleveland Center
Fri 05:07:09 PM 42.9833 -79.2833 North 390 449 17,800 -231 Climbing Toronto Center
Fri 05:08:09 PM 43.0833 -79.3167 346° North 380 437 15,400 -2,200 Descending Toronto Center
Fri 05:09:09 PM 43.1833 -79.3167 360° North 360 414 13,400 -1,400 Descending Toronto Center
Fri 05:10:09 PM 43.2667 -79.3333 352° North 330 380 12,600 -1,100 Descending Toronto Center
Fri 05:11:09 PM 43.3500 -79.3500 352° North 290 334 11,200 -1,150 Descending Toronto Center
Fri 05:12:09 PM 43.4167 -79.3833 340° North 270 311 10,300 -1,150 Descending Toronto Center
Fri 05:13:09 PM 43.4833 -79.4333 331° Northwest 250 288 8,900 -1,150 Descending Toronto Center
Fri 05:14:09 PM 43.5333 -79.4667 334° Northwest 250 288 8,000 -1,000 Descending Toronto Center
Fri 05:15:09 PM 43.5667 -79.5333 305° West 240 276 6,900 -1,200 Descending Toronto Center
Fri 05:16:09 PM 43.5333 -79.6167 241° Southwest 250 288 5,600 -1,250 Descending Toronto Center
Fri 05:17:09 PM 43.4833 -79.6833 224° Southwest 250 288 4,400 -1,200 Descending Toronto Center
Fri 05:18:09 PM 43.4667 -79.7500 251° West 230 265 3,200 -700 Descending Toronto Center
Fri 05:19:09 PM 43.5000 -79.8000 313° West 200 230 3,000 -100 Descending Toronto Center
Fri 05:20:09 PM 43.5500 -79.7500 36° Northeast 170 196 3,000 -250 Level Toronto Center
Fri 05:21:09 PM 43.5833 -79.7000 47° Northeast 170 196 2,500 -650 Descending Toronto Center
Fri 05:22:09 PM 43.6167 -79.6500 47° Northeast 170 196 1,700 -800 Descending Toronto Center
Fri 05:23:09 PM 43.6333 -79.6333 36° Northeast 140 161 900 -800 Descending Toronto Center

Login

Don't have an account? Register now (free) for customized features, flight alerts, and more!